sensor_id;sensor_type;location;lat;lon;timestamp;P1;durP1;ratioP1;P2;durP2;ratioP2
54575;SDS011;40472;53.486;14.542;2022-09-09T00:06:42;6.75;;;4.93;;
54575;SDS011;40472;53.486;14.542;2022-09-09T00:09:36;9.18;;;6.20;;
54575;SDS011;40472;53.486;14.542;2022-09-09T00:12:17;9.65;;;6.32;;
54575;SDS011;40472;53.486;14.542;2022-09-09T00:17:31;6.55;;;5.18;;
54575;SDS011;40472;53.486;14.542;2022-09-09T00:23:29;10.57;;;5.35;;
54575;SDS011;40472;53.486;14.542;2022-09-09T00:28:27;7.50;;;5.45;;
54575;SDS011;40472;53.486;14.542;2022-09-09T00:30:59;9.35;;;6.10;;
54575;SDS011;40472;53.486;14.542;2022-09-09T00:33:33;7.53;;;5.43;;
54575;SDS011;40472;53.486;14.542;2022-09-09T00:35:59;8.13;;;5.65;;
54575;SDS011;40472;53.486;14.542;2022-09-09T00:43:31;5.47;;;3.88;;
54575;SDS011;40472;53.486;14.542;2022-09-09T00:52:03;7.68;;;5.00;;
54575;SDS011;40472;53.486;14.542;2022-09-09T00:57:35;6.15;;;4.10;;
54575;SDS011;40472;53.486;14.542;2022-09-09T01:00:18;8.90;;;5.18;;
54575;SDS011;40472;53.486;14.542;2022-09-09T01:07:57;8.45;;;6.20;;
54575;SDS011;40472;53.486;14.542;2022-09-09T01:10:38;7.82;;;5.38;;
54575;SDS011;40472;53.486;14.542;2022-09-09T01:13:22;7.53;;;5.40;;
54575;SDS011;40472;53.486;14.542;2022-09-09T01:15:55;8.52;;;5.40;;
54575;SDS011;40472;53.486;14.542;2022-09-09T01:18:43;15.07;;;6.13;;
54575;SDS011;40472;53.486;14.542;2022-09-09T01:27:03;10.93;;;6.53;;
54575;SDS011;40472;53.486;14.542;2022-09-09T01:29:31;11.70;;;6.65;;
54575;SDS011;40472;53.486;14.542;2022-09-09T01:32:02;8.02;;;5.95;;
54575;SDS011;40472;53.486;14.542;2022-09-09T01:34:48;10.60;;;6.18;;
54575;SDS011;40472;53.486;14.542;2022-09-09T01:37:16;7.70;;;4.82;;
54575;SDS011;40472;53.486;14.542;2022-09-09T01:39:42;8.63;;;5.90;;
54575;SDS011;40472;53.486;14.542;2022-09-09T01:42:09;7.00;;;4.78;;
54575;SDS011;40472;53.486;14.542;2022-09-09T01:44:39;9.45;;;5.65;;
54575;SDS011;40472;53.486;14.542;2022-09-09T01:47:05;9.27;;;6.22;;
54575;SDS011;40472;53.486;14.542;2022-09-09T01:49:31;9.68;;;6.65;;
54575;SDS011;40472;53.486;14.542;2022-09-09T01:51:57;9.88;;;6.85;;
54575;SDS011;40472;53.486;14.542;2022-09-09T01:54:26;11.07;;;7.05;;
54575;SDS011;40472;53.486;14.542;2022-09-09T01:57:08;8.98;;;6.35;;
54575;SDS011;40472;53.486;14.542;2022-09-09T02:00:06;9.70;;;6.82;;
54575;SDS011;40472;53.486;14.542;2022-09-09T02:02:36;8.80;;;6.45;;
54575;SDS011;40472;53.486;14.542;2022-09-09T02:05:30;8.52;;;5.95;;
54575;SDS011;40472;53.486;14.542;2022-09-09T02:08:06;10.02;;;6.65;;
54575;SDS011;40472;53.486;14.542;2022-09-09T02:10:37;13.93;;;9.02;;
54575;SDS011;40472;53.486;14.542;2022-09-09T02:13:16;13.10;;;7.40;;
54575;SDS011;40472;53.486;14.542;2022-09-09T02:18:42;14.80;;;8.10;;
54575;SDS011;40472;53.486;14.542;2022-09-09T02:21:15;14.38;;;9.20;;
54575;SDS011;40472;53.486;14.542;2022-09-09T02:23:43;14.77;;;8.93;;
54575;SDS011;40472;53.486;14.542;2022-09-09T02:26:12;15.63;;;9.27;;
54575;SDS011;40472;53.486;14.542;2022-09-09T02:28:44;12.10;;;8.27;;
54575;SDS011;40472;53.486;14.542;2022-09-09T02:31:12;11.63;;;8.90;;
54575;SDS011;40472;53.486;14.542;2022-09-09T02:33:41;14.73;;;8.77;;
54575;SDS011;40472;53.486;14.542;2022-09-09T02:36:11;8.02;;;5.45;;
54575;SDS011;40472;53.486;14.542;2022-09-09T02:38:42;14.85;;;8.90;;
54575;SDS011;40472;53.486;14.542;2022-09-09T02:41:15;13.45;;;8.73;;
54575;SDS011;40472;53.486;14.542;2022-09-09T02:43:43;13.70;;;8.93;;
54575;SDS011;40472;53.486;14.542;2022-09-09T02:53:47;14.07;;;9.45;;
54575;SDS011;40472;53.486;14.542;2022-09-09T02:56:31;18.40;;;10.20;;
54575;SDS011;40472;53.486;14.542;2022-09-09T02:59:02;13.52;;;9.13;;
54575;SDS011;40472;53.486;14.542;2022-09-09T03:01:29;13.98;;;9.43;;
54575;SDS011;40472;53.486;14.542;2022-09-09T03:03:54;11.15;;;7.32;;
54575;SDS011;40472;53.486;14.542;2022-09-09T03:06:20;14.65;;;10.27;;
54575;SDS011;40472;53.486;14.542;2022-09-09T03:08:46;15.07;;;9.10;;
54575;SDS011;40472;53.486;14.542;2022-09-09T03:11:14;11.68;;;5.65;;
54575;SDS011;40472;53.486;14.542;2022-09-09T03:13:39;13.70;;;8.95;;
54575;SDS011;40472;53.486;14.542;2022-09-09T03:16:05;16.80;;;10.00;;
54575;SDS011;40472;53.486;14.542;2022-09-09T03:18:31;17.92;;;10.35;;
54575;SDS011;40472;53.486;14.542;2022-09-09T03:20:57;13.88;;;8.90;;
54575;SDS011;40472;53.486;14.542;2022-09-09T03:23:25;16.73;;;9.25;;
54575;SDS011;40472;53.486;14.542;2022-09-09T03:25:51;18.25;;;10.30;;
54575;SDS011;40472;53.486;14.542;2022-09-09T03:28:18;16.42;;;10.40;;
54575;SDS011;40472;53.486;14.542;2022-09-09T03:30:45;17.50;;;10.07;;
54575;SDS011;40472;53.486;14.542;2022-09-09T03:33:11;17.65;;;11.40;;
54575;SDS011;40472;53.486;14.542;2022-09-09T03:35:37;20.35;;;10.60;;
54575;SDS011;40472;53.486;14.542;2022-09-09T03:38:04;15.45;;;9.90;;
54575;SDS011;40472;53.486;14.542;2022-09-09T03:40:30;14.45;;;9.65;;
54575;SDS011;40472;53.486;14.542;2022-09-09T03:42:56;17.35;;;10.50;;
54575;SDS011;40472;53.486;14.542;2022-09-09T03:45:21;17.20;;;10.32;;
54575;SDS011;40472;53.486;14.542;2022-09-09T03:47:47;17.45;;;10.80;;
54575;SDS011;40472;53.486;14.542;2022-09-09T03:50:14;16.77;;;11.05;;
54575;SDS011;40472;53.486;14.542;2022-09-09T03:52:40;22.40;;;12.27;;
54575;SDS011;40472;53.486;14.542;2022-09-09T03:55:07;22.25;;;11.57;;
54575;SDS011;40472;53.486;14.542;2022-09-09T03:57:33;18.75;;;11.43;;
54575;SDS011;40472;53.486;14.542;2022-09-09T04:00:04;20.88;;;11.48;;
54575;SDS011;40472;53.486;14.542;2022-09-09T04:02:32;19.50;;;11.48;;
54575;SDS011;40472;53.486;14.542;2022-09-09T04:04:58;20.40;;;11.75;;
54575;SDS011;40472;53.486;14.542;2022-09-09T04:07:24;22.00;;;12.35;;
54575;SDS011;40472;53.486;14.542;2022-09-09T04:09:52;22.23;;;11.95;;
54575;SDS011;40472;53.486;14.542;2022-09-09T04:12:19;22.77;;;13.20;;
54575;SDS011;40472;53.486;14.542;2022-09-09T04:14:46;27.67;;;14.43;;
54575;SDS011;40472;53.486;14.542;2022-09-09T04:17:11;23.58;;;13.25;;
54575;SDS011;40472;53.486;14.542;2022-09-09T04:19:37;22.73;;;13.30;;
54575;SDS011;40472;53.486;14.542;2022-09-09T04:22:03;22.25;;;13.50;;
54575;SDS011;40472;53.486;14.542;2022-09-09T04:24:29;22.77;;;13.35;;
54575;SDS011;40472;53.486;14.542;2022-09-09T04:26:54;22.13;;;13.98;;
54575;SDS011;40472;53.486;14.542;2022-09-09T04:29:20;21.67;;;13.63;;
54575;SDS011;40472;53.486;14.542;2022-09-09T04:31:46;23.10;;;14.15;;
54575;SDS011;40472;53.486;14.542;2022-09-09T04:34:12;26.38;;;13.68;;
54575;SDS011;40472;53.486;14.542;2022-09-09T04:36:38;18.90;;;12.18;;
54575;SDS011;40472;53.486;14.542;2022-09-09T04:39:05;24.40;;;13.48;;
54575;SDS011;40472;53.486;14.542;2022-09-09T04:41:31;23.23;;;13.75;;
54575;SDS011;40472;53.486;14.542;2022-09-09T04:43:57;27.55;;;15.57;;
54575;SDS011;40472;53.486;14.542;2022-09-09T04:46:25;25.05;;;14.57;;
54575;SDS011;40472;53.486;14.542;2022-09-09T04:48:51;27.52;;;15.85;;
54575;SDS011;40472;53.486;14.542;2022-09-09T04:51:17;25.10;;;15.07;;
54575;SDS011;40472;53.486;14.542;2022-09-09T04:53:43;32.78;;;16.75;;
54575;SDS011;40472;53.486;14.542;2022-09-09T04:56:12;27.73;;;16.40;;
54575;SDS011;40472;53.486;14.542;2022-09-09T04:58:39;35.33;;;16.98;;
54575;SDS011;40472;53.486;14.542;2022-09-09T05:01:13;28.30;;;15.95;;
54575;SDS011;40472;53.486;14.542;2022-09-09T05:03:39;29.70;;;15.82;;
54575;SDS011;40472;53.486;14.542;2022-09-09T05:06:06;31.48;;;14.68;;
54575;SDS011;40472;53.486;14.542;2022-09-09T05:08:35;36.42;;;17.23;;
54575;SDS011;40472;53.486;14.542;2022-09-09T05:11:01;33.00;;;17.90;;
54575;SDS011;40472;53.486;14.542;2022-09-09T05:13:28;34.35;;;17.33;;
54575;SDS011;40472;53.486;14.542;2022-09-09T05:15:59;36.28;;;17.63;;
54575;SDS011;40472;53.486;14.542;2022-09-09T05:18:25;34.60;;;18.45;;
54575;SDS011;40472;53.486;14.542;2022-09-09T05:20:51;36.65;;;18.50;;
54575;SDS011;40472;53.486;14.542;2022-09-09T05:23:17;29.88;;;14.65;;
54575;SDS011;40472;53.486;14.542;2022-09-09T05:25:43;28.70;;;15.10;;
54575;SDS011;40472;53.486;14.542;2022-09-09T05:28:09;31.15;;;14.60;;
54575;SDS011;40472;53.486;14.542;2022-09-09T05:30:36;32.65;;;14.98;;
54575;SDS011;40472;53.486;14.542;2022-09-09T05:33:05;33.60;;;15.77;;
54575;SDS011;40472;53.486;14.542;2022-09-09T05:35:31;32.40;;;15.35;;
54575;SDS011;40472;53.486;14.542;2022-09-09T05:38:01;33.25;;;15.25;;
54575;SDS011;40472;53.486;14.542;2022-09-09T05:40:27;30.98;;;14.20;;
54575;SDS011;40472;53.486;14.542;2022-09-09T05:42:52;31.48;;;15.07;;
54575;SDS011;40472;53.486;14.542;2022-09-09T05:45:18;33.28;;;16.13;;
54575;SDS011;40472;53.486;14.542;2022-09-09T05:47:44;32.30;;;15.32;;
54575;SDS011;40472;53.486;14.542;2022-09-09T05:50:17;27.77;;;14.98;;
54575;SDS011;40472;53.486;14.542;2022-09-09T05:52:42;29.40;;;15.60;;
54575;SDS011;40472;53.486;14.542;2022-09-09T05:55:09;31.70;;;15.32;;
54575;SDS011;40472;53.486;14.542;2022-09-09T05:57:35;22.75;;;11.30;;
54575;SDS011;40472;53.486;14.542;2022-09-09T06:00:00;38.90;;;16.58;;
54575;SDS011;40472;53.486;14.542;2022-09-09T06:02:27;32.53;;;15.52;;
54575;SDS011;40472;53.486;14.542;2022-09-09T06:04:53;30.92;;;16.27;;
54575;SDS011;40472;53.486;14.542;2022-09-09T06:07:20;32.97;;;16.33;;
54575;SDS011;40472;53.486;14.542;2022-09-09T06:09:46;32.75;;;16.77;;
54575;SDS011;40472;53.486;14.542;2022-09-09T06:12:12;36.85;;;17.13;;
54575;SDS011;40472;53.486;14.542;2022-09-09T06:14:38;31.08;;;15.70;;
54575;SDS011;40472;53.486;14.542;2022-09-09T06:17:04;38.13;;;17.58;;
54575;SDS011;40472;53.486;14.542;2022-09-09T06:19:30;31.20;;;14.10;;
54575;SDS011;40472;53.486;14.542;2022-09-09T06:21:56;35.83;;;16.90;;
54575;SDS011;40472;53.486;14.542;2022-09-09T06:24:22;32.38;;;17.13;;
54575;SDS011;40472;53.486;14.542;2022-09-09T06:26:47;33.30;;;14.05;;
54575;SDS011;40472;53.486;14.542;2022-09-09T06:29:13;28.73;;;15.73;;
54575;SDS011;40472;53.486;14.542;2022-09-09T06:31:39;42.67;;;17.98;;
54575;SDS011;40472;53.486;14.542;2022-09-09T06:34:07;43.08;;;19.13;;
54575;SDS011;40472;53.486;14.542;2022-09-09T06:36:37;24.60;;;13.05;;
54575;SDS011;40472;53.486;14.542;2022-09-09T06:39:04;28.13;;;12.40;;
54575;SDS011;40472;53.486;14.542;2022-09-09T06:41:31;31.58;;;14.23;;
54575;SDS011;40472;53.486;14.542;2022-09-09T06:43:58;29.77;;;13.85;;
54575;SDS011;40472;53.486;14.542;2022-09-09T06:46:25;33.00;;;15.30;;
54575;SDS011;40472;53.486;14.542;2022-09-09T06:48:53;31.55;;;14.93;;
54575;SDS011;40472;53.486;14.542;2022-09-09T06:51:24;36.50;;;16.73;;
54575;SDS011;40472;53.486;14.542;2022-09-09T06:53:53;34.65;;;16.10;;
54575;SDS011;40472;53.486;14.542;2022-09-09T06:56:30;32.92;;;14.27;;
54575;SDS011;40472;53.486;14.542;2022-09-09T06:58:59;23.42;;;11.68;;
54575;SDS011;40472;53.486;14.542;2022-09-09T07:01:31;32.55;;;15.00;;
54575;SDS011;40472;53.486;14.542;2022-09-09T07:03:59;32.63;;;16.70;;
54575;SDS011;40472;53.486;14.542;2022-09-09T07:08:56;25.15;;;13.10;;
54575;SDS011;40472;53.486;14.542;2022-09-09T07:11:24;27.33;;;14.48;;
54575;SDS011;40472;53.486;14.542;2022-09-09T07:13:52;18.75;;;10.38;;
54575;SDS011;40472;53.486;14.542;2022-09-09T07:16:19;21.92;;;10.80;;
54575;SDS011;40472;53.486;14.542;2022-09-09T07:18:45;24.40;;;12.70;;
54575;SDS011;40472;53.486;14.542;2022-09-09T07:21:12;25.25;;;12.40;;
54575;SDS011;40472;53.486;14.542;2022-09-09T07:23:39;25.58;;;13.13;;
54575;SDS011;40472;53.486;14.542;2022-09-09T07:26:09;26.67;;;12.13;;
54575;SDS011;40472;53.486;14.542;2022-09-09T07:28:37;27.02;;;13.40;;
54575;SDS011;40472;53.486;14.542;2022-09-09T07:31:03;21.77;;;11.90;;
54575;SDS011;40472;53.486;14.542;2022-09-09T07:33:31;24.02;;;12.68;;
54575;SDS011;40472;53.486;14.542;2022-09-09T07:38:39;23.52;;;11.00;;
54575;SDS011;40472;53.486;14.542;2022-09-09T07:41:06;23.02;;;12.82;;
54575;SDS011;40472;53.486;14.542;2022-09-09T07:43:43;27.05;;;12.75;;
54575;SDS011;40472;53.486;14.542;2022-09-09T07:46:11;29.42;;;12.63;;
54575;SDS011;40472;53.486;14.542;2022-09-09T07:48:38;27.05;;;12.18;;
54575;SDS011;40472;53.486;14.542;2022-09-09T07:51:09;21.52;;;11.25;;
54575;SDS011;40472;53.486;14.542;2022-09-09T07:53:40;25.05;;;12.05;;
54575;SDS011;40472;53.486;14.542;2022-09-09T07:56:07;25.35;;;11.65;;
54575;SDS011;40472;53.486;14.542;2022-09-09T07:58:35;22.77;;;12.73;;
54575;SDS011;40472;53.486;14.542;2022-09-09T08:01:06;23.42;;;12.75;;
54575;SDS011;40472;53.486;14.542;2022-09-09T08:03:37;21.30;;;11.30;;
54575;SDS011;40472;53.486;14.542;2022-09-09T08:06:03;21.05;;;11.82;;
54575;SDS011;40472;53.486;14.542;2022-09-09T08:08:32;24.52;;;14.68;;
54575;SDS011;40472;53.486;14.542;2022-09-09T08:11:02;23.55;;;11.57;;
54575;SDS011;40472;53.486;14.542;2022-09-09T08:13:36;22.30;;;13.45;;
54575;SDS011;40472;53.486;14.542;2022-09-09T08:16:05;20.00;;;11.80;;
54575;SDS011;40472;53.486;14.542;2022-09-09T08:18:34;19.58;;;12.23;;
54575;SDS011;40472;53.486;14.542;2022-09-09T08:23:42;19.00;;;12.02;;
54575;SDS011;40472;53.486;14.542;2022-09-09T08:26:14;22.27;;;13.93;;
54575;SDS011;40472;53.486;14.542;2022-09-09T08:28:42;20.80;;;13.95;;
54575;SDS011;40472;53.486;14.542;2022-09-09T08:31:12;22.13;;;13.30;;
54575;SDS011;40472;53.486;14.542;2022-09-09T08:33:41;23.55;;;13.77;;
54575;SDS011;40472;53.486;14.542;2022-09-09T08:36:12;24.55;;;15.50;;
54575;SDS011;40472;53.486;14.542;2022-09-09T08:38:40;25.13;;;13.00;;
54575;SDS011;40472;53.486;14.542;2022-09-09T08:41:12;22.10;;;13.98;;
54575;SDS011;40472;53.486;14.542;2022-09-09T08:46:49;25.42;;;13.55;;
54575;SDS011;40472;53.486;14.542;2022-09-09T08:49:39;16.30;;;10.63;;
54575;SDS011;40472;53.486;14.542;2022-09-09T08:52:29;21.98;;;12.60;;
54575;SDS011;40472;53.486;14.542;2022-09-09T08:58:38;18.45;;;12.95;;
54575;SDS011;40472;53.486;14.542;2022-09-09T09:08:59;11.30;;;7.05;;
54575;SDS011;40472;53.486;14.542;2022-09-09T09:11:39;14.90;;;10.82;;
54575;SDS011;40472;53.486;14.542;2022-09-09T09:14:20;15.30;;;11.20;;
54575;SDS011;40472;53.486;14.542;2022-09-09T09:19:16;15.27;;;9.38;;
54575;SDS011;40472;53.486;14.542;2022-09-09T09:21:54;17.92;;;11.05;;
54575;SDS011;40472;53.486;14.542;2022-09-09T09:27:21;13.65;;;9.82;;
54575;SDS011;40472;53.486;14.542;2022-09-09T09:30:13;12.00;;;8.35;;
54575;SDS011;40472;53.486;14.542;2022-09-09T09:32:43;14.00;;;8.80;;
54575;SDS011;40472;53.486;14.542;2022-09-09T09:35:18;12.82;;;8.57;;
54575;SDS011;40472;53.486;14.542;2022-09-09T09:37:44;12.88;;;8.63;;
54575;SDS011;40472;53.486;14.542;2022-09-09T09:40:11;13.63;;;8.73;;
54575;SDS011;40472;53.486;14.542;2022-09-09T09:42:47;13.98;;;9.82;;
54575;SDS011;40472;53.486;14.542;2022-09-09T09:47:57;12.57;;;9.35;;
54575;SDS011;40472;53.486;14.542;2022-09-09T09:50:24;12.32;;;8.90;;
54575;SDS011;40472;53.486;14.542;2022-09-09T09:52:53;15.48;;;9.38;;
54575;SDS011;40472;53.486;14.542;2022-09-09T09:55:23;11.80;;;7.57;;
54575;SDS011;40472;53.486;14.542;2022-09-09T09:57:50;14.70;;;9.68;;
54575;SDS011;40472;53.486;14.542;2022-09-09T10:02:45;12.77;;;9.15;;
54575;SDS011;40472;53.486;14.542;2022-09-09T10:05:16;15.52;;;9.20;;
54575;SDS011;40472;53.486;14.542;2022-09-09T10:07:47;15.27;;;9.95;;
54575;SDS011;40472;53.486;14.542;2022-09-09T10:10:31;12.48;;;8.90;;
54575;SDS011;40472;53.486;14.542;2022-09-09T10:19:24;13.48;;;9.65;;
54575;SDS011;40472;53.486;14.542;2022-09-09T10:36:02;18.65;;;9.55;;
54575;SDS011;40472;53.486;14.542;2022-09-09T10:38:43;11.63;;;8.13;;
54575;SDS011;40472;53.486;14.542;2022-09-09T10:41:13;11.80;;;8.10;;
54575;SDS011;40472;53.486;14.542;2022-09-09T10:57:46;12.57;;;6.25;;
54575;SDS011;40472;53.486;14.542;2022-09-09T11:00:18;8.00;;;4.88;;
54575;SDS011;40472;53.486;14.542;2022-09-09T11:03:00;7.20;;;4.90;;
54575;SDS011;40472;53.486;14.542;2022-09-09T11:05:42;9.23;;;5.43;;
54575;SDS011;40472;53.486;14.542;2022-09-09T11:21:41;22.98;;;5.07;;
54575;SDS011;40472;53.486;14.542;2022-09-09T11:24:13;4.20;;;3.55;;
54575;SDS011;40472;53.486;14.542;2022-09-09T11:26:53;5.72;;;2.88;;
54575;SDS011;40472;53.486;14.542;2022-09-09T11:40:40;4.25;;;2.65;;
54575;SDS011;40472;53.486;14.542;2022-09-09T11:43:10;7.00;;;2.80;;
54575;SDS011;40472;53.486;14.542;2022-09-09T11:45:39;8.13;;;2.92;;
54575;SDS011;40472;53.486;14.542;2022-09-09T11:48:21;5.38;;;2.17;;
54575;SDS011;40472;53.486;14.542;2022-09-09T11:51:07;5.32;;;2.13;;
54575;SDS011;40472;53.486;14.542;2022-09-09T11:53:51;29.38;;;3.80;;
54575;SDS011;40472;53.486;14.542;2022-09-09T11:56:51;4.80;;;2.55;;
54575;SDS011;40472;53.486;14.542;2022-09-09T12:01:57;3.67;;;2.35;;
54575;SDS011;40472;53.486;14.542;2022-09-09T12:09:46;4.60;;;2.50;;
54575;SDS011;40472;53.486;14.542;2022-09-09T12:12:25;4.25;;;1.90;;
54575;SDS011;40472;53.486;14.542;2022-09-09T12:15:00;5.20;;;2.08;;
54575;SDS011;40472;53.486;14.542;2022-09-09T12:17:36;5.18;;;2.28;;
54575;SDS011;40472;53.486;14.542;2022-09-09T12:20:15;5.63;;;2.03;;
54575;SDS011;40472;53.486;14.542;2022-09-09T12:22:51;3.22;;;2.08;;
54575;SDS011;40472;53.486;14.542;2022-09-09T12:33:22;5.60;;;2.20;;
54575;SDS011;40472;53.486;14.542;2022-09-09T12:35:53;7.38;;;1.60;;
54575;SDS011;40472;53.486;14.542;2022-09-09T12:38:40;2.05;;;1.20;;
54575;SDS011;40472;53.486;14.542;2022-09-09T12:41:17;3.97;;;1.25;;
54575;SDS011;40472;53.486;14.542;2022-09-09T12:43:49;4.10;;;1.50;;
54575;SDS011;40472;53.486;14.542;2022-09-09T12:46:32;2.42;;;1.80;;
54575;SDS011;40472;53.486;14.542;2022-09-09T12:52:16;5.28;;;2.20;;
54575;SDS011;40472;53.486;14.542;2022-09-09T12:54:48;2.17;;;1.10;;
54575;SDS011;40472;53.486;14.542;2022-09-09T12:57:16;6.13;;;2.70;;
54575;SDS011;40472;53.486;14.542;2022-09-09T12:59:43;4.43;;;1.90;;
54575;SDS011;40472;53.486;14.542;2022-09-09T13:02:31;2.92;;;1.80;;
54575;SDS011;40472;53.486;14.542;2022-09-09T13:05:05;4.40;;;1.80;;
54575;SDS011;40472;53.486;14.542;2022-09-09T13:07:39;2.72;;;1.88;;
54575;SDS011;40472;53.486;14.542;2022-09-09T13:10:05;2.70;;;1.30;;
54575;SDS011;40472;53.486;14.542;2022-09-09T13:12:31;3.72;;;1.40;;
54575;SDS011;40472;53.486;14.542;2022-09-09T13:15:00;4.68;;;1.10;;
54575;SDS011;40472;53.486;14.542;2022-09-09T13:17:27;4.68;;;1.40;;
54575;SDS011;40472;53.486;14.542;2022-09-09T13:19:56;3.63;;;1.30;;
54575;SDS011;40472;53.486;14.542;2022-09-09T13:27:37;2.45;;;1.10;;
54575;SDS011;40472;53.486;14.542;2022-09-09T13:30:22;3.17;;;0.98;;
54575;SDS011;40472;53.486;14.542;2022-09-09T13:33:00;2.10;;;0.80;;
54575;SDS011;40472;53.486;14.542;2022-09-09T13:35:26;2.60;;;0.95;;
54575;SDS011;40472;53.486;14.542;2022-09-09T13:37:52;3.00;;;1.30;;
54575;SDS011;40472;53.486;14.542;2022-09-09T13:40:19;3.92;;;1.23;;
54575;SDS011;40472;53.486;14.542;2022-09-09T13:42:46;2.28;;;1.30;;
54575;SDS011;40472;53.486;14.542;2022-09-09T13:45:23;2.30;;;1.10;;
54575;SDS011;40472;53.486;14.542;2022-09-09T13:47:52;2.53;;;1.30;;
54575;SDS011;40472;53.486;14.542;2022-09-09T13:50:25;6.18;;;1.55;;
54575;SDS011;40472;53.486;14.542;2022-09-09T13:52:53;6.18;;;1.85;;
54575;SDS011;40472;53.486;14.542;2022-09-09T13:55:21;5.10;;;1.38;;
54575;SDS011;40472;53.486;14.542;2022-09-09T13:57:55;5.10;;;1.63;;
54575;SDS011;40472;53.486;14.542;2022-09-09T14:00:23;5.40;;;1.30;;
54575;SDS011;40472;53.486;14.542;2022-09-09T14:02:50;6.25;;;1.55;;
54575;SDS011;40472;53.486;14.542;2022-09-09T14:05:18;3.83;;;1.30;;
54575;SDS011;40472;53.486;14.542;2022-09-09T14:07:45;3.08;;;1.38;;
54575;SDS011;40472;53.486;14.542;2022-09-09T14:10:11;3.58;;;1.20;;
54575;SDS011;40472;53.486;14.542;2022-09-09T14:12:38;4.13;;;1.48;;
54575;SDS011;40472;53.486;14.542;2022-09-09T14:15:04;1.83;;;1.10;;
54575;SDS011;40472;53.486;14.542;2022-09-09T14:17:31;3.58;;;1.05;;
54575;SDS011;40472;53.486;14.542;2022-09-09T14:19:58;3.45;;;1.13;;
54575;SDS011;40472;53.486;14.542;2022-09-09T14:22:24;3.42;;;1.10;;
54575;SDS011;40472;53.486;14.542;2022-09-09T14:24:50;3.55;;;1.08;;
54575;SDS011;40472;53.486;14.542;2022-09-09T14:27:16;4.82;;;1.23;;
54575;SDS011;40472;53.486;14.542;2022-09-09T14:29:44;4.22;;;1.38;;
54575;SDS011;40472;53.486;14.542;2022-09-09T14:32:10;1.67;;;0.93;;
54575;SDS011;40472;53.486;14.542;2022-09-09T14:34:36;3.20;;;1.17;;
54575;SDS011;40472;53.486;14.542;2022-09-09T14:37:03;1.55;;;1.08;;
54575;SDS011;40472;53.486;14.542;2022-09-09T14:39:29;4.18;;;1.10;;
54575;SDS011;40472;53.486;14.542;2022-09-09T14:41:55;3.72;;;1.15;;
54575;SDS011;40472;53.486;14.542;2022-09-09T14:44:21;5.20;;;1.23;;
54575;SDS011;40472;53.486;14.542;2022-09-09T14:46:47;7.38;;;1.20;;
54575;SDS011;40472;53.486;14.542;2022-09-09T14:49:15;3.85;;;1.30;;
54575;SDS011;40472;53.486;14.542;2022-09-09T14:51:41;4.05;;;1.40;;
54575;SDS011;40472;53.486;14.542;2022-09-09T14:54:07;6.13;;;1.58;;
54575;SDS011;40472;53.486;14.542;2022-09-09T14:56:33;4.68;;;1.20;;
54575;SDS011;40472;53.486;14.542;2022-09-09T14:58:59;3.83;;;1.05;;
54575;SDS011;40472;53.486;14.542;2022-09-09T15:01:26;2.30;;;1.35;;
54575;SDS011;40472;53.486;14.542;2022-09-09T15:06:20;3.50;;;1.10;;
54575;SDS011;40472;53.486;14.542;2022-09-09T15:08:49;3.30;;;1.05;;
54575;SDS011;40472;53.486;14.542;2022-09-09T15:11:16;3.22;;;1.13;;
54575;SDS011;40472;53.486;14.542;2022-09-09T15:13:42;3.03;;;1.48;;
54575;SDS011;40472;53.486;14.542;2022-09-09T15:16:10;4.95;;;1.10;;
54575;SDS011;40472;53.486;14.542;2022-09-09T15:18:43;5.72;;;1.08;;
54575;SDS011;40472;53.486;14.542;2022-09-09T15:21:10;3.72;;;1.00;;
54575;SDS011;40472;53.486;14.542;2022-09-09T15:23:40;3.95;;;1.15;;
54575;SDS011;40472;53.486;14.542;2022-09-09T15:26:07;2.45;;;1.05;;
54575;SDS011;40472;53.486;14.542;2022-09-09T15:28:34;3.35;;;1.13;;
54575;SDS011;40472;53.486;14.542;2022-09-09T15:31:04;2.70;;;1.35;;
54575;SDS011;40472;53.486;14.542;2022-09-09T15:33:32;3.90;;;1.25;;
54575;SDS011;40472;53.486;14.542;2022-09-09T15:35:58;5.95;;;1.70;;
54575;SDS011;40472;53.486;14.542;2022-09-09T15:38:24;4.07;;;1.60;;
54575;SDS011;40472;53.486;14.542;2022-09-09T15:40:56;3.15;;;1.23;;
54575;SDS011;40472;53.486;14.542;2022-09-09T15:43:23;4.30;;;1.30;;
54575;SDS011;40472;53.486;14.542;2022-09-09T15:45:51;7.03;;;1.30;;
54575;SDS011;40472;53.486;14.542;2022-09-09T15:48:29;3.92;;;1.20;;
54575;SDS011;40472;53.486;14.542;2022-09-09T15:51:03;3.50;;;1.08;;
54575;SDS011;40472;53.486;14.542;2022-09-09T15:53:29;3.45;;;1.58;;
54575;SDS011;40472;53.486;14.542;2022-09-09T15:55:57;2.80;;;1.27;;
54575;SDS011;40472;53.486;14.542;2022-09-09T15:58:24;4.85;;;1.70;;
54575;SDS011;40472;53.486;14.542;2022-09-09T16:00:50;3.80;;;1.23;;
54575;SDS011;40472;53.486;14.542;2022-09-09T16:03:16;2.13;;;1.20;;
54575;SDS011;40472;53.486;14.542;2022-09-09T16:05:42;8.85;;;1.45;;
54575;SDS011;40472;53.486;14.542;2022-09-09T16:08:08;4.18;;;1.13;;
54575;SDS011;40472;53.486;14.542;2022-09-09T16:10:35;9.00;;;2.42;;
54575;SDS011;40472;53.486;14.542;2022-09-09T16:13:01;4.15;;;1.27;;
54575;SDS011;40472;53.486;14.542;2022-09-09T16:15:27;6.38;;;1.40;;
54575;SDS011;40472;53.486;14.542;2022-09-09T16:17:53;2.47;;;1.23;;
54575;SDS011;40472;53.486;14.542;2022-09-09T16:20:20;6.13;;;1.40;;
54575;SDS011;40472;53.486;14.542;2022-09-09T16:22:46;13.52;;;1.70;;
54575;SDS011;40472;53.486;14.542;2022-09-09T16:25:11;3.60;;;1.60;;
54575;SDS011;40472;53.486;14.542;2022-09-09T16:27:37;3.88;;;1.60;;
54575;SDS011;40472;53.486;14.542;2022-09-09T16:30:03;4.38;;;1.35;;
54575;SDS011;40472;53.486;14.542;2022-09-09T16:32:29;6.50;;;1.67;;
54575;SDS011;40472;53.486;14.542;2022-09-09T16:34:55;3.67;;;1.50;;
54575;SDS011;40472;53.486;14.542;2022-09-09T16:37:21;5.57;;;1.77;;
54575;SDS011;40472;53.486;14.542;2022-09-09T16:39:46;8.18;;;2.42;;
54575;SDS011;40472;53.486;14.542;2022-09-09T16:42:12;15.02;;;1.98;;
54575;SDS011;40472;53.486;14.542;2022-09-09T16:44:38;5.13;;;2.00;;
54575;SDS011;40472;53.486;14.542;2022-09-09T16:47:04;5.85;;;1.75;;
54575;SDS011;40472;53.486;14.542;2022-09-09T16:49:29;9.13;;;2.35;;
54575;SDS011;40472;53.486;14.542;2022-09-09T16:51:57;11.57;;;2.13;;
54575;SDS011;40472;53.486;14.542;2022-09-09T16:54:24;5.63;;;2.15;;
54575;SDS011;40472;53.486;14.542;2022-09-09T16:56:51;10.80;;;2.35;;
54575;SDS011;40472;53.486;14.542;2022-09-09T16:59:18;7.45;;;1.92;;
54575;SDS011;40472;53.486;14.542;2022-09-09T17:01:46;9.07;;;2.55;;
54575;SDS011;40472;53.486;14.542;2022-09-09T17:04:15;4.53;;;2.00;;
54575;SDS011;40472;53.486;14.542;2022-09-09T17:06:46;6.40;;;2.20;;
54575;SDS011;40472;53.486;14.542;2022-09-09T17:09:14;6.65;;;1.85;;
54575;SDS011;40472;53.486;14.542;2022-09-09T17:11:40;6.38;;;2.03;;
54575;SDS011;40472;53.486;14.542;2022-09-09T17:14:07;9.75;;;2.20;;
54575;SDS011;40472;53.486;14.542;2022-09-09T17:16:35;3.67;;;1.80;;
54575;SDS011;40472;53.486;14.542;2022-09-09T17:19:04;5.78;;;1.73;;
54575;SDS011;40472;53.486;14.542;2022-09-09T17:21:31;5.15;;;1.92;;
54575;SDS011;40472;53.486;14.542;2022-09-09T17:23:57;6.57;;;1.80;;
54575;SDS011;40472;53.486;14.542;2022-09-09T17:26:28;4.70;;;1.70;;